sensor_id;sensor_type;location;lat;lon;timestamp;temperature;humidity
67192;HTU21D;54120;53.504;49.426;2023-09-19T00:00:43;11.70;95.09
67192;HTU21D;54120;53.504;49.426;2023-09-19T00:03:10;11.69;96.94
67192;HTU21D;54120;53.504;49.426;2023-09-19T00:05:38;11.71;97.55
67192;HTU21D;54120;53.504;49.426;2023-09-19T00:08:05;11.84;97.04
67192;HTU21D;54120;53.504;49.426;2023-09-19T00:10:33;11.84;96.91
67192;HTU21D;54120;53.504;49.426;2023-09-19T00:13:02;11.82;96.37
67192;HTU21D;54120;53.504;49.426;2023-09-19T00:15:40;11.77;96.36
67192;HTU21D;54120;53.504;49.426;2023-09-19T00:18:07;11.67;95.86
67192;HTU21D;54120;53.504;49.426;2023-09-19T00:20:36;11.56;94.61
67192;HTU21D;54120;53.504;49.426;2023-09-19T00:23:03;11.34;94.95
67192;HTU21D;54120;53.504;49.426;2023-09-19T00:25:30;11.23;95.43
67192;HTU21D;54120;53.504;49.426;2023-09-19T00:27:58;11.26;95.91
67192;HTU21D;54120;53.504;49.426;2023-09-19T00:30:24;11.17;95.84
67192;HTU21D;54120;53.504;49.426;2023-09-19T00:32:51;11.08;95.67
67192;HTU21D;54120;53.504;49.426;2023-09-19T00:35:23;10.97;96.08
67192;HTU21D;54120;53.504;49.426;2023-09-19T00:37:53;10.94;96.10
67192;HTU21D;54120;53.504;49.426;2023-09-19T00:40:20;10.88;95.94
67192;HTU21D;54120;53.504;49.426;2023-09-19T00:42:48;10.80;96.23
67192;HTU21D;54120;53.504;49.426;2023-09-19T00:45:16;10.71;96.29
67192;HTU21D;54120;53.504;49.426;2023-09-19T00:47:45;10.75;97.31
67192;HTU21D;54120;53.504;49.426;2023-09-19T00:50:13;10.77;97.29
67192;HTU21D;54120;53.504;49.426;2023-09-19T00:52:42;10.74;96.97
67192;HTU21D;54120;53.504;49.426;2023-09-19T00:55:10;10.77;97.29
67192;HTU21D;54120;53.504;49.426;2023-09-19T00:57:40;10.75;97.10
67192;HTU21D;54120;53.504;49.426;2023-09-19T01:00:07;10.74;96.62
67192;HTU21D;54120;53.504;49.426;2023-09-19T01:02:34;10.71;95.53
67192;HTU21D;54120;53.504;49.426;2023-09-19T01:05:05;10.68;95.79
67192;HTU21D;54120;53.504;49.426;2023-09-19T01:07:32;10.70;95.58
67192;HTU21D;54120;53.504;49.426;2023-09-19T01:10:06;10.78;95.98
67192;HTU21D;54120;53.504;49.426;2023-09-19T01:18:04;10.92;94.72
67192;HTU21D;54120;53.504;49.426;2023-09-19T01:20:37;10.96;94.55
67192;HTU21D;54120;53.504;49.426;2023-09-19T01:23:11;10.95;94.01
67192;HTU21D;54120;53.504;49.426;2023-09-19T01:30:58;10.90;94.46
67192;HTU21D;54120;53.504;49.426;2023-09-19T01:33:27;10.88;94.35
67192;HTU21D;54120;53.504;49.426;2023-09-19T01:36:00;10.86;93.66
67192;HTU21D;54120;53.504;49.426;2023-09-19T01:38:26;10.82;93.99
67192;HTU21D;54120;53.504;49.426;2023-09-19T01:41:08;10.72;93.82
67192;HTU21D;54120;53.504;49.426;2023-09-19T01:43:42;10.72;93.69
67192;HTU21D;54120;53.504;49.426;2023-09-19T01:46:21;10.70;93.38
67192;HTU21D;54120;53.504;49.426;2023-09-19T01:49:30;10.69;93.88
67192;HTU21D;54120;53.504;49.426;2023-09-19T01:52:09;10.79;94.47
67192;HTU21D;54120;53.504;49.426;2023-09-19T01:54:48;10.92;94.25
67192;HTU21D;54120;53.504;49.426;2023-09-19T01:57:41;10.97;93.63
67192;HTU21D;54120;53.504;49.426;2023-09-19T02:00:10;10.96;92.81
67192;HTU21D;54120;53.504;49.426;2023-09-19T02:02:38;10.81;91.71
67192;HTU21D;54120;53.504;49.426;2023-09-19T02:05:08;10.60;92.59
67192;HTU21D;54120;53.504;49.426;2023-09-19T02:07:35;10.62;95.01
67192;HTU21D;54120;53.504;49.426;2023-09-19T02:10:05;10.67;95.87
67192;HTU21D;54120;53.504;49.426;2023-09-19T02:12:32;10.70;94.39
67192;HTU21D;54120;53.504;49.426;2023-09-19T02:14:59;10.49;93.85
67192;HTU21D;54120;53.504;49.426;2023-09-19T02:17:25;10.39;96.13
67192;HTU21D;54120;53.504;49.426;2023-09-19T02:19:53;10.62;96.85
67192;HTU21D;54120;53.504;49.426;2023-09-19T02:22:19;10.59;94.72
67192;HTU21D;54120;53.504;49.426;2023-09-19T02:24:45;10.56;94.81
67192;HTU21D;54120;53.504;49.426;2023-09-19T02:27:14;10.69;96.14
67192;HTU21D;54120;53.504;49.426;2023-09-19T02:29:42;10.71;94.71
67192;HTU21D;54120;53.504;49.426;2023-09-19T02:32:08;10.59;92.71
67192;HTU21D;54120;53.504;49.426;2023-09-19T02:34:35;10.56;93.62
67192;HTU21D;54120;53.504;49.426;2023-09-19T02:37:05;10.50;93.11
67192;HTU21D;54120;53.504;49.426;2023-09-19T02:39:32;10.57;95.38
67192;HTU21D;54120;53.504;49.426;2023-09-19T02:41:58;10.83;96.28
67192;HTU21D;54120;53.504;49.426;2023-09-19T02:44:25;10.93;93.10
67192;HTU21D;54120;53.504;49.426;2023-09-19T02:46:51;10.97;92.61
67192;HTU21D;54120;53.504;49.426;2023-09-19T02:49:17;10.99;91.15
67192;HTU21D;54120;53.504;49.426;2023-09-19T02:51:44;11.11;92.35
67192;HTU21D;54120;53.504;49.426;2023-09-19T02:54:10;11.39;92.39
67192;HTU21D;54120;53.504;49.426;2023-09-19T02:56:37;11.63;92.49
67192;HTU21D;54120;53.504;49.426;2023-09-19T02:59:03;11.97;90.21
67192;HTU21D;54120;53.504;49.426;2023-09-19T03:01:29;13.17;86.66
67192;HTU21D;54120;53.504;49.426;2023-09-19T03:03:56;14.60;79.64
67192;HTU21D;54120;53.504;49.426;2023-09-19T03:06:22;15.53;75.29
67192;HTU21D;54120;53.504;49.426;2023-09-19T03:08:49;16.78;69.96
67192;HTU21D;54120;53.504;49.426;2023-09-19T03:11:17;17.85;63.47
67192;HTU21D;54120;53.504;49.426;2023-09-19T03:13:53;18.70;62.14
67192;HTU21D;54120;53.504;49.426;2023-09-19T03:16:19;19.46;60.35
67192;HTU21D;54120;53.504;49.426;2023-09-19T03:18:48;19.99;57.48
67192;HTU21D;54120;53.504;49.426;2023-09-19T03:21:17;20.50;57.47
67192;HTU21D;54120;53.504;49.426;2023-09-19T03:23:44;20.65;56.85
67192;HTU21D;54120;53.504;49.426;2023-09-19T03:26:12;21.02;56.06
67192;HTU21D;54120;53.504;49.426;2023-09-19T03:28:38;21.06;55.71
67192;HTU21D;54120;53.504;49.426;2023-09-19T03:31:05;19.01;62.63
67192;HTU21D;54120;53.504;49.426;2023-09-19T03:33:32;17.68;67.52
67192;HTU21D;54120;53.504;49.426;2023-09-19T03:35:59;16.43;72.85
67192;HTU21D;54120;53.504;49.426;2023-09-19T03:38:27;15.87;75.57
67192;HTU21D;54120;53.504;49.426;2023-09-19T03:40:54;15.52;77.28
67192;HTU21D;54120;53.504;49.426;2023-09-19T03:43:21;15.46;77.34
67192;HTU21D;54120;53.504;49.426;2023-09-19T03:45:47;15.45;77.25
67192;HTU21D;54120;53.504;49.426;2023-09-19T03:48:15;15.47;77.24
67192;HTU21D;54120;53.504;49.426;2023-09-19T03:50:41;15.47;77.31
67192;HTU21D;54120;53.504;49.426;2023-09-19T03:53:09;15.47;77.36
67192;HTU21D;54120;53.504;49.426;2023-09-19T03:55:35;15.39;77.85
67192;HTU21D;54120;53.504;49.426;2023-09-19T03:58:02;15.37;77.83
67192;HTU21D;54120;53.504;49.426;2023-09-19T04:00:28;15.34;78.05
67192;HTU21D;54120;53.504;49.426;2023-09-19T04:02:55;15.23;78.53
67192;HTU21D;54120;53.504;49.426;2023-09-19T04:05:23;14.98;79.71
67192;HTU21D;54120;53.504;49.426;2023-09-19T04:07:49;15.07;79.69
67192;HTU21D;54120;53.504;49.426;2023-09-19T04:10:16;15.07;79.26
67192;HTU21D;54120;53.504;49.426;2023-09-19T04:12:53;15.01;79.59
67192;HTU21D;54120;53.504;49.426;2023-09-19T04:15:19;14.99;79.48
67192;HTU21D;54120;53.504;49.426;2023-09-19T04:17:50;14.83;80.35
67192;HTU21D;54120;53.504;49.426;2023-09-19T04:20:17;14.77;80.78
67192;HTU21D;54120;53.504;49.426;2023-09-19T04:22:46;14.81;80.88
67192;HTU21D;54120;53.504;49.426;2023-09-19T04:25:15;15.11;79.66
67192;HTU21D;54120;53.504;49.426;2023-09-19T04:27:41;17.60;70.42
67192;HTU21D;54120;53.504;49.426;2023-09-19T04:30:08;21.46;55.92
67192;HTU21D;54120;53.504;49.426;2023-09-19T04:32:38;21.36;55.26
67192;HTU21D;54120;53.504;49.426;2023-09-19T04:35:08;21.75;55.63
67192;HTU21D;54120;53.504;49.426;2023-09-19T04:37:40;23.51;49.50
67192;HTU21D;54120;53.504;49.426;2023-09-19T04:40:08;23.20;49.97
67192;HTU21D;54120;53.504;49.426;2023-09-19T04:42:43;21.70;54.05
67192;HTU21D;54120;53.504;49.426;2023-09-19T04:45:10;20.44;58.57
67192;HTU21D;54120;53.504;49.426;2023-09-19T04:47:37;20.11;58.99
67192;HTU21D;54120;53.504;49.426;2023-09-19T04:50:09;20.89;57.55
67192;HTU21D;54120;53.504;49.426;2023-09-19T04:52:43;23.02;50.21
67192;HTU21D;54120;53.504;49.426;2023-09-19T04:55:14;22.70;49.85
67192;HTU21D;54120;53.504;49.426;2023-09-19T04:57:45;21.16;55.10
67192;HTU21D;54120;53.504;49.426;2023-09-19T05:00:13;21.68;52.78
67192;HTU21D;54120;53.504;49.426;2023-09-19T05:02:43;23.90;47.37
67192;HTU21D;54120;53.504;49.426;2023-09-19T05:05:10;25.06;43.80
67192;HTU21D;54120;53.504;49.426;2023-09-19T05:07:40;25.40;42.58
67192;HTU21D;54120;53.504;49.426;2023-09-19T05:10:08;23.87;46.54
67192;HTU21D;54120;53.504;49.426;2023-09-19T05:12:36;21.68;51.89
67192;HTU21D;54120;53.504;49.426;2023-09-19T05:15:03;19.43;59.49
67192;HTU21D;54120;53.504;49.426;2023-09-19T05:17:30;18.65;62.30
67192;HTU21D;54120;53.504;49.426;2023-09-19T05:19:57;20.75;55.68
67192;HTU21D;54120;53.504;49.426;2023-09-19T05:22:26;20.79;55.39
67192;HTU21D;54120;53.504;49.426;2023-09-19T05:24:53;22.46;50.59
67192;HTU21D;54120;53.504;49.426;2023-09-19T05:27:20;24.41;44.57
67192;HTU21D;54120;53.504;49.426;2023-09-19T05:29:47;23.42;47.05
67192;HTU21D;54120;53.504;49.426;2023-09-19T05:32:16;21.58;52.47
67192;HTU21D;54120;53.504;49.426;2023-09-19T05:34:46;20.03;56.69
67192;HTU21D;54120;53.504;49.426;2023-09-19T05:37:13;19.18;60.80
67192;HTU21D;54120;53.504;49.426;2023-09-19T05:39:42;19.72;59.16
67192;HTU21D;54120;53.504;49.426;2023-09-19T05:42:09;21.14;53.87
67192;HTU21D;54120;53.504;49.426;2023-09-19T05:44:35;22.11;50.64
67192;HTU21D;54120;53.504;49.426;2023-09-19T05:47:03;20.76;54.68
67192;HTU21D;54120;53.504;49.426;2023-09-19T05:49:29;19.51;58.73
67192;HTU21D;54120;53.504;49.426;2023-09-19T05:51:55;18.56;62.54
67192;HTU21D;54120;53.504;49.426;2023-09-19T05:54:22;18.24;62.86
67192;HTU21D;54120;53.504;49.426;2023-09-19T05:56:49;17.90;64.96
67192;HTU21D;54120;53.504;49.426;2023-09-19T05:59:19;18.35;63.51
67192;HTU21D;54120;53.504;49.426;2023-09-19T06:01:46;19.52;58.83
67192;HTU21D;54120;53.504;49.426;2023-09-19T06:04:14;19.62;58.41
67192;HTU21D;54120;53.504;49.426;2023-09-19T06:06:40;20.05;55.89
67192;HTU21D;54120;53.504;49.426;2023-09-19T06:09:07;20.29;54.33
67192;HTU21D;54120;53.504;49.426;2023-09-19T06:11:35;22.82;47.83
67192;HTU21D;54120;53.504;49.426;2023-09-19T06:14:03;26.99;37.82
67192;HTU21D;54120;53.504;49.426;2023-09-19T06:16:31;29.65;31.60
67192;HTU21D;54120;53.504;49.426;2023-09-19T06:19:00;29.62;31.41
67192;HTU21D;54120;53.504;49.426;2023-09-19T06:21:29;28.48;32.71
67192;HTU21D;54120;53.504;49.426;2023-09-19T06:23:56;28.29;33.63
67192;HTU21D;54120;53.504;49.426;2023-09-19T06:26:24;24.88;40.44
67192;HTU21D;54120;53.504;49.426;2023-09-19T06:28:52;22.43;46.80
67192;HTU21D;54120;53.504;49.426;2023-09-19T06:31:19;23.79;41.73
67192;HTU21D;54120;53.504;49.426;2023-09-19T06:33:49;22.24;45.95
67192;HTU21D;54120;53.504;49.426;2023-09-19T06:36:15;20.73;50.32
67192;HTU21D;54120;53.504;49.426;2023-09-19T06:38:43;21.50;48.37
67192;HTU21D;54120;53.504;49.426;2023-09-19T06:41:10;24.33;40.20
67192;HTU21D;54120;53.504;49.426;2023-09-19T06:43:37;23.58;40.91
67192;HTU21D;54120;53.504;49.426;2023-09-19T06:46:05;22.05;43.96
67192;HTU21D;54120;53.504;49.426;2023-09-19T06:48:32;22.97;41.48
67192;HTU21D;54120;53.504;49.426;2023-09-19T06:50:59;21.28;45.57
67192;HTU21D;54120;53.504;49.426;2023-09-19T06:53:34;20.32;49.47
67192;HTU21D;54120;53.504;49.426;2023-09-19T06:56:02;19.87;51.79
67192;HTU21D;54120;53.504;49.426;2023-09-19T06:58:28;19.46;52.66
67192;HTU21D;54120;53.504;49.426;2023-09-19T07:00:54;21.78;46.19
67192;HTU21D;54120;53.504;49.426;2023-09-19T07:03:20;23.29;41.25
67192;HTU21D;54120;53.504;49.426;2023-09-19T07:05:48;26.38;34.19
67192;HTU21D;54120;53.504;49.426;2023-09-19T07:08:14;27.46;31.70
67192;HTU21D;54120;53.504;49.426;2023-09-19T07:10:42;27.01;32.08
67192;HTU21D;54120;53.504;49.426;2023-09-19T07:13:15;25.33;35.96
67192;HTU21D;54120;53.504;49.426;2023-09-19T07:15:43;25.62;35.45
67192;HTU21D;54120;53.504;49.426;2023-09-19T07:18:13;26.02;34.48
67192;HTU21D;54120;53.504;49.426;2023-09-19T07:20:41;24.62;37.95
67192;HTU21D;54120;53.504;49.426;2023-09-19T07:23:11;25.82;35.85
67192;HTU21D;54120;53.504;49.426;2023-09-19T07:25:41;25.65;36.22
67192;HTU21D;54120;53.504;49.426;2023-09-19T07:28:07;22.72;42.91
67192;HTU21D;54120;53.504;49.426;2023-09-19T07:30:36;22.01;45.61
67192;HTU21D;54120;53.504;49.426;2023-09-19T07:33:03;23.37;42.25
67192;HTU21D;54120;53.504;49.426;2023-09-19T07:35:31;21.98;45.46
67192;HTU21D;54120;53.504;49.426;2023-09-19T07:37:57;20.61;47.39
67192;HTU21D;54120;53.504;49.426;2023-09-19T07:40:27;19.89;49.44
67192;HTU21D;54120;53.504;49.426;2023-09-19T07:42:58;19.63;48.02
67192;HTU21D;54120;53.504;49.426;2023-09-19T07:45:28;19.31;47.31
67192;HTU21D;54120;53.504;49.426;2023-09-19T07:47:56;19.21;47.41
67192;HTU21D;54120;53.504;49.426;2023-09-19T07:50:22;19.02;45.92
67192;HTU21D;54120;53.504;49.426;2023-09-19T07:52:50;19.22;46.70
67192;HTU21D;54120;53.504;49.426;2023-09-19T07:55:20;19.00;45.18
67192;HTU21D;54120;53.504;49.426;2023-09-19T07:57:52;19.15;45.92
67192;HTU21D;54120;53.504;49.426;2023-09-19T08:00:18;19.39;43.95
67192;HTU21D;54120;53.504;49.426;2023-09-19T08:02:46;19.61;44.52
67192;HTU21D;54120;53.504;49.426;2023-09-19T08:05:14;19.71;45.54
67192;HTU21D;54120;53.504;49.426;2023-09-19T08:07:45;19.33;46.04
67192;HTU21D;54120;53.504;49.426;2023-09-19T08:10:15;18.71;48.57
67192;HTU21D;54120;53.504;49.426;2023-09-19T08:12:43;18.39;49.79
67192;HTU21D;54120;53.504;49.426;2023-09-19T08:15:19;18.44;49.44
67192;HTU21D;54120;53.504;49.426;2023-09-19T08:17:46;18.70;49.18
67192;HTU21D;54120;53.504;49.426;2023-09-19T08:20:13;18.88;48.64
67192;HTU21D;54120;53.504;49.426;2023-09-19T08:22:46;19.16;46.90
67192;HTU21D;54120;53.504;49.426;2023-09-19T08:25:17;19.01;47.64
67192;HTU21D;54120;53.504;49.426;2023-09-19T08:27:47;18.66;47.44
67192;HTU21D;54120;53.504;49.426;2023-09-19T08:30:15;18.36;48.28
67192;HTU21D;54120;53.504;49.426;2023-09-19T08:32:42;18.38;48.50
67192;HTU21D;54120;53.504;49.426;2023-09-19T08:35:10;18.77;47.16
67192;HTU21D;54120;53.504;49.426;2023-09-19T08:37:36;18.82;46.60
67192;HTU21D;54120;53.504;49.426;2023-09-19T08:40:03;19.09;46.28
67192;HTU21D;54120;53.504;49.426;2023-09-19T08:42:29;19.20;45.76
67192;HTU21D;54120;53.504;49.426;2023-09-19T08:44:57;18.71;47.27
67192;HTU21D;54120;53.504;49.426;2023-09-19T08:47:46;18.61;48.08
67192;HTU21D;54120;53.504;49.426;2023-09-19T08:50:19;18.88;47.15
67192;HTU21D;54120;53.504;49.426;2023-09-19T08:52:52;19.35;45.93
67192;HTU21D;54120;53.504;49.426;2023-09-19T08:55:23;19.83;44.92
67192;HTU21D;54120;53.504;49.426;2023-09-19T08:58:03;19.65;44.95
67192;HTU21D;54120;53.504;49.426;2023-09-19T09:00:30;19.69;44.56
67192;HTU21D;54120;53.504;49.426;2023-09-19T09:02:58;19.32;45.07
67192;HTU21D;54120;53.504;49.426;2023-09-19T09:05:25;18.92;45.41
67192;HTU21D;54120;53.504;49.426;2023-09-19T09:07:53;18.57;46.65
67192;HTU21D;54120;53.504;49.426;2023-09-19T09:10:23;18.79;45.63
67192;HTU21D;54120;53.504;49.426;2023-09-19T09:12:52;19.24;43.96
67192;HTU21D;54120;53.504;49.426;2023-09-19T09:15:19;19.42;43.64
67192;HTU21D;54120;53.504;49.426;2023-09-19T09:17:48;19.63;46.30
67192;HTU21D;54120;53.504;49.426;2023-09-19T09:20:19;19.16;48.14
67192;HTU21D;54120;53.504;49.426;2023-09-19T09:22:52;18.78;48.70
67192;HTU21D;54120;53.504;49.426;2023-09-19T09:25:21;18.58;49.14
67192;HTU21D;54120;53.504;49.426;2023-09-19T09:28:00;18.73;49.44
67192;HTU21D;54120;53.504;49.426;2023-09-19T09:30:35;18.92;49.55
67192;HTU21D;54120;53.504;49.426;2023-09-19T09:33:12;18.76;48.73
67192;HTU21D;54120;53.504;49.426;2023-09-19T09:35:53;18.96;48.31
67192;HTU21D;54120;53.504;49.426;2023-09-19T09:38:24;19.32;46.60
67192;HTU21D;54120;53.504;49.426;2023-09-19T09:40:55;19.37;46.19
67192;HTU21D;54120;53.504;49.426;2023-09-19T09:43:37;19.57;45.76
67192;HTU21D;54120;53.504;49.426;2023-09-19T09:46:19;19.74;45.64
67192;HTU21D;54120;53.504;49.426;2023-09-19T09:48:57;20.00;44.87
67192;HTU21D;54120;53.504;49.426;2023-09-19T09:52:00;20.40;43.97
67192;HTU21D;54120;53.504;49.426;2023-09-19T09:54:28;20.44;43.08
67192;HTU21D;54120;53.504;49.426;2023-09-19T09:57:01;20.30;43.47
67192;HTU21D;54120;53.504;49.426;2023-09-19T09:59:56;20.12;44.28
67192;HTU21D;54120;53.504;49.426;2023-09-19T10:02:42;19.69;45.53
67192;HTU21D;54120;53.504;49.426;2023-09-19T10:05:16;19.36;47.16
67192;HTU21D;54120;53.504;49.426;2023-09-19T10:08:11;19.66;45.41
67192;HTU21D;54120;53.504;49.426;2023-09-19T10:10:40;19.46;45.39
67192;HTU21D;54120;53.504;49.426;2023-09-19T10:13:12;19.54;45.33
67192;HTU21D;54120;53.504;49.426;2023-09-19T10:15:43;19.92;45.01
67192;HTU21D;54120;53.504;49.426;2023-09-19T10:18:22;19.80;45.49
67192;HTU21D;54120;53.504;49.426;2023-09-19T10:20:49;19.27;46.98
67192;HTU21D;54120;53.504;49.426;2023-09-19T10:23:21;18.98;46.78
67192;HTU21D;54120;53.504;49.426;2023-09-19T10:25:52;18.82;47.27
67192;HTU21D;54120;53.504;49.426;2023-09-19T10:28:20;18.83;47.91
67192;HTU21D;54120;53.504;49.426;2023-09-19T10:30:52;18.98;47.09
67192;HTU21D;54120;53.504;49.426;2023-09-19T10:33:24;19.10;47.02
67192;HTU21D;54120;53.504;49.426;2023-09-19T10:35:53;19.28;46.12
67192;HTU21D;54120;53.504;49.426;2023-09-19T10:38:26;19.22;46.09
67192;HTU21D;54120;53.504;49.426;2023-09-19T10:40:55;19.00;45.86
67192;HTU21D;54120;53.504;49.426;2023-09-19T10:43:29;19.01;46.26
67192;HTU21D;54120;53.504;49.426;2023-09-19T10:46:01;18.94;46.12
67192;HTU21D;54120;53.504;49.426;2023-09-19T10:48:29;18.78;47.12
67192;HTU21D;54120;53.504;49.426;2023-09-19T10:56:34;18.56;47.39
67192;HTU21D;54120;53.504;49.426;2023-09-19T10:59:10;18.65;47.73
67192;HTU21D;54120;53.504;49.426;2023-09-19T11:01:52;18.82;47.34
67192;HTU21D;54120;53.504;49.426;2023-09-19T11:04:32;18.82;46.74
67192;HTU21D;54120;53.504;49.426;2023-09-19T11:07:10;19.01;46.43
67192;HTU21D;54120;53.504;49.426;2023-09-19T11:09:55;19.16;45.71
67192;HTU21D;54120;53.504;49.426;2023-09-19T11:15:02;19.32;44.58
67192;HTU21D;54120;53.504;49.426;2023-09-19T11:17:43;19.37;43.69
67192;HTU21D;54120;53.504;49.426;2023-09-19T11:30:40;18.48;45.64
67192;HTU21D;54120;53.504;49.426;2023-09-19T11:33:26;18.55;45.12
67192;HTU21D;54120;53.504;49.426;2023-09-19T11:36:15;18.58;44.82
67192;HTU21D;54120;53.504;49.426;2023-09-19T11:49:40;18.77;45.04
67192;HTU21D;54120;53.504;49.426;2023-09-19T11:52:04;18.54;45.88
67192;HTU21D;54120;53.504;49.426;2023-09-19T11:54:32;18.53;46.09
67192;HTU21D;54120;53.504;49.426;2023-09-19T11:56:59;18.55;46.28
67192;HTU21D;54120;53.504;49.426;2023-09-19T11:59:30;18.63;46.02
67192;HTU21D;54120;53.504;49.426;2023-09-19T12:02:07;18.54;45.31
67192;HTU21D;54120;53.504;49.426;2023-09-19T12:04:41;18.34;45.09
67192;HTU21D;54120;53.504;49.426;2023-09-19T12:07:12;18.12;45.98
67192;HTU21D;54120;53.504;49.426;2023-09-19T12:09:43;17.91;46.91
67192;HTU21D;54120;53.504;49.426;2023-09-19T12:12:26;18.07;46.61
67192;HTU21D;54120;53.504;49.426;2023-09-19T12:15:01;18.09;46.28
67192;HTU21D;54120;53.504;49.426;2023-09-19T12:17:38;18.14;46.36
67192;HTU21D;54120;53.504;49.426;2023-09-19T12:20:07;18.05;46.89
67192;HTU21D;54120;53.504;49.426;2023-09-19T12:22:44;18.06;46.79
67192;HTU21D;54120;53.504;49.426;2023-09-19T12:25:11;18.00;46.84
67192;HTU21D;54120;53.504;49.426;2023-09-19T12:27:45;17.97;46.64
67192;HTU21D;54120;53.504;49.426;2023-09-19T12:30:19;17.79;46.49
67192;HTU21D;54120;53.504;49.426;2023-09-19T12:32:48;17.77;47.09
67192;HTU21D;54120;53.504;49.426;2023-09-19T12:35:29;17.94;46.97
67192;HTU21D;54120;53.504;49.426;2023-09-19T12:37:56;17.93;46.90
67192;HTU21D;54120;53.504;49.426;2023-09-19T12:40:23;17.94;46.54
67192;HTU21D;54120;53.504;49.426;2023-09-19T12:42:57;17.92;45.23
67192;HTU21D;54120;53.504;49.426;2023-09-19T12:45:32;17.81;46.08
67192;HTU21D;54120;53.504;49.426;2023-09-19T12:51:09;18.07;45.89
67192;HTU21D;54120;53.504;49.426;2023-09-19T12:56:13;17.85;46.25
67192;HTU21D;54120;53.504;49.426;2023-09-19T13:01:20;17.77;47.04
67192;HTU21D;54120;53.504;49.426;2023-09-19T13:04:17;17.85;47.86
67192;HTU21D;54120;53.504;49.426;2023-09-19T13:06:53;17.80;46.93
67192;HTU21D;54120;53.504;49.426;2023-09-19T13:09:22;17.73;46.99
67192;HTU21D;54120;53.504;49.426;2023-09-19T13:11:54;17.69;46.93
67192;HTU21D;54120;53.504;49.426;2023-09-19T13:19:39;17.61;47.00
67192;HTU21D;54120;53.504;49.426;2023-09-19T13:25:08;17.53;47.01
67192;HTU21D;54120;53.504;49.426;2023-09-19T13:27:41;17.47;47.57
67192;HTU21D;54120;53.504;49.426;2023-09-19T13:30:07;17.45;47.78
67192;HTU21D;54120;53.504;49.426;2023-09-19T13:32:33;17.39;48.31
67192;HTU21D;54120;53.504;49.426;2023-09-19T13:34:59;17.30;48.34
67192;HTU21D;54120;53.504;49.426;2023-09-19T13:37:26;17.18;48.48
67192;HTU21D;54120;53.504;49.426;2023-09-19T13:39:52;17.15;49.08
67192;HTU21D;54120;53.504;49.426;2023-09-19T13:42:20;17.11;49.32
67192;HTU21D;54120;53.504;49.426;2023-09-19T13:44:47;17.09;49.04
67192;HTU21D;54120;53.504;49.426;2023-09-19T13:47:13;17.06;48.79
67192;HTU21D;54120;53.504;49.426;2023-09-19T13:49:44;16.98;49.20
67192;HTU21D;54120;53.504;49.426;2023-09-19T13:52:10;16.93;49.53
67192;HTU21D;54120;53.504;49.426;2023-09-19T13:54:38;16.84;50.47
67192;HTU21D;54120;53.504;49.426;2023-09-19T13:57:05;16.71;50.38
67192;HTU21D;54120;53.504;49.426;2023-09-19T13:59:31;16.64;51.17
67192;HTU21D;54120;53.504;49.426;2023-09-19T14:01:57;16.60;51.63
67192;HTU21D;54120;53.504;49.426;2023-09-19T14:04:23;16.56;52.07
67192;HTU21D;54120;53.504;49.426;2023-09-19T14:06:49;16.50;52.67
67192;HTU21D;54120;53.504;49.426;2023-09-19T14:09:15;16.42;53.32
67192;HTU21D;54120;53.504;49.426;2023-09-19T14:11:45;16.34;53.54
67192;HTU21D;54120;53.504;49.426;2023-09-19T14:14:13;16.30;53.10
67192;HTU21D;54120;53.504;49.426;2023-09-19T14:16:40;16.22;53.62
67192;HTU21D;54120;53.504;49.426;2023-09-19T14:19:07;16.13;53.84
67192;HTU21D;54120;53.504;49.426;2023-09-19T14:21:33;16.07;53.91
67192;HTU21D;54120;53.504;49.426;2023-09-19T14:23:59;16.04;53.94
67192;HTU21D;54120;53.504;49.426;2023-09-19T14:26:25;15.96;54.50
67192;HTU21D;54120;53.504;49.426;2023-09-19T14:28:51;15.85;55.14
67192;HTU21D;54120;53.504;49.426;2023-09-19T14:31:17;15.75;55.07
67192;HTU21D;54120;53.504;49.426;2023-09-19T14:33:43;15.69;55.45
67192;HTU21D;54120;53.504;49.426;2023-09-19T14:36:09;15.58;56.06
67192;HTU21D;54120;53.504;49.426;2023-09-19T14:38:37;15.48;56.29
67192;HTU21D;54120;53.504;49.426;2023-09-19T14:41:04;15.45;56.40
67192;HTU21D;54120;53.504;49.426;2023-09-19T14:43:31;15.40;56.47
67192;HTU21D;54120;53.504;49.426;2023-09-19T14:46:07;15.33;56.86
67192;HTU21D;54120;53.504;49.426;2023-09-19T14:48:35;15.25;57.19
67192;HTU21D;54120;53.504;49.426;2023-09-19T14:51:05;15.16;58.38
67192;HTU21D;54120;53.504;49.426;2023-09-19T14:53:37;14.99;58.51
67192;HTU21D;54120;53.504;49.426;2023-09-19T14:56:05;14.87;58.84
67192;HTU21D;54120;53.504;49.426;2023-09-19T14:58:31;14.83;59.93
67192;HTU21D;54120;53.504;49.426;2023-09-19T15:01:13;14.75;59.83
67192;HTU21D;54120;53.504;49.426;2023-09-19T15:03:40;14.68;59.92
67192;HTU21D;54120;53.504;49.426;2023-09-19T15:06:08;14.62;59.90
67192;HTU21D;54120;53.504;49.426;2023-09-19T15:08:36;14.58;59.74
67192;HTU21D;54120;53.504;49.426;2023-09-19T15:11:04;14.60;59.82
67192;HTU21D;54120;53.504;49.426;2023-09-19T15:13:31;14.59;60.59
67192;HTU21D;54120;53.504;49.426;2023-09-19T15:16:06;14.50;60.25
67192;HTU21D;54120;53.504;49.426;2023-09-19T15:18:40;14.45;61.47
67192;HTU21D;54120;53.504;49.426;2023-09-19T15:21:11;14.27;61.23
67192;HTU21D;54120;53.504;49.426;2023-09-19T15:23:39;14.15;62.50
67192;HTU21D;54120;53.504;49.426;2023-09-19T15:26:07;14.04;62.52
67192;HTU21D;54120;53.504;49.426;2023-09-19T15:28:43;13.95;63.69
67192;HTU21D;54120;53.504;49.426;2023-09-19T15:31:11;13.89;63.66
67192;HTU21D;54120;53.504;49.426;2023-09-19T15:33:38;13.90;63.58
67192;HTU21D;54120;53.504;49.426;2023-09-19T15:41:26;13.89;63.66
67192;HTU21D;54120;53.504;49.426;2023-09-19T15:43:53;13.78;64.85
67192;HTU21D;54120;53.504;49.426;2023-09-19T15:46:20;13.74;64.98
67192;HTU21D;54120;53.504;49.426;2023-09-19T15:48:46;13.66;65.77
67192;HTU21D;54120;53.504;49.426;2023-09-19T15:51:13;13.59;65.08
67192;HTU21D;54120;53.504;49.426;2023-09-19T15:53:50;13.50;66.20
67192;HTU21D;54120;53.504;49.426;2023-09-19T15:56:18;13.36;66.78
67192;HTU21D;54120;53.504;49.426;2023-09-19T15:58:44;13.23;67.03
67192;HTU21D;54120;53.504;49.426;2023-09-19T16:01:12;13.33;66.62
67192;HTU21D;54120;53.504;49.426;2023-09-19T16:03:42;13.39;66.30
67192;HTU21D;54120;53.504;49.426;2023-09-19T16:06:10;13.30;66.65
67192;HTU21D;54120;53.504;49.426;2023-09-19T16:08:43;13.18;67.22
67192;HTU21D;54120;53.504;49.426;2023-09-19T16:11:10;13.00;69.48
67192;HTU21D;54120;53.504;49.426;2023-09-19T16:13:38;12.95;69.02
67192;HTU21D;54120;53.504;49.426;2023-09-19T16:16:04;12.97;69.68
67192;HTU21D;54120;53.504;49.426;2023-09-19T16:18:31;12.88;69.47
67192;HTU21D;54120;53.504;49.426;2023-09-19T16:21:03;12.84;68.58